createdAt,value
2022-08-09T00:00:04.495Z,50.62
2022-08-09T00:02:34.057Z,50.07
2022-08-09T00:06:16.614Z,50.15
2022-08-09T00:07:48.733Z,50.32
2022-08-09T00:10:21.083Z,50.11
2022-08-09T00:12:52.669Z,50.45
2022-08-09T00:15:35.618Z,50.15
2022-08-09T00:18:11.346Z,50.18
2022-08-09T00:20:41.502Z,49.22
2022-08-09T00:23:56.598Z,48.71
2022-08-09T00:26:05.610Z,48.22
2022-08-09T00:28:34.790Z,48.37
2022-08-09T00:31:09.245Z,47.73
2022-08-09T00:33:51.962Z,48.41
2022-08-09T00:36:20.364Z,48.34
2022-08-09T00:38:51.243Z,48.35
2022-08-09T00:44:14.250Z,48.34
2022-08-09T00:44:20.323Z,48.29
2022-08-09T00:46:57.040Z,48.30
2022-08-09T00:49:31.221Z,50.06
2022-08-09T00:52:05.224Z,51.14
2022-08-09T00:54:35.999Z,51.00
2022-08-09T00:57:10.169Z,53.90
2022-08-09T00:59:41.677Z,54.26
2022-08-09T01:02:20.358Z,57.54
2022-08-09T01:05:05.487Z,55.74
2022-08-09T01:08:00.466Z,56.19
2022-08-09T01:10:28.934Z,59.61
2022-08-09T01:12:57.311Z,61.42
2022-08-09T01:15:29.156Z,57.18
2022-08-09T01:18:04.957Z,60.44
2022-08-09T01:20:55.666Z,60.53
2022-08-09T01:24:00.910Z,60.17
2022-08-09T01:26:33.720Z,58.75
2022-08-09T01:29:03.494Z,62.82
2022-08-09T01:32:32.181Z,61.87
2022-08-09T01:34:22.626Z,62.46
2022-08-09T01:36:50.196Z,62.25
2022-08-09T01:39:18.217Z,60.35
2022-08-09T01:41:55.990Z,58.82
2022-08-09T01:44:29.148Z,62.38
2022-08-09T01:46:59.864Z,62.70
2022-08-09T01:49:28.079Z,62.16
2022-08-09T01:52:14.706Z,61.79
2022-08-09T01:54:52.473Z,63.21
2022-08-09T01:57:23.882Z,64.20
2022-08-09T02:00:00.136Z,65.75
2022-08-09T02:02:31.590Z,64.92
2022-08-09T02:05:15.423Z,63.39
2022-08-09T02:08:40.365Z,62.53
2022-08-09T02:10:51.326Z,59.75
2022-08-09T02:13:21.969Z,60.74
2022-08-09T02:15:55.279Z,59.69
2022-08-09T02:18:26.864Z,59.68
2022-08-09T02:21:02.862Z,61.86
2022-08-09T02:23:40.019Z,62.50
2022-08-09T02:26:24.867Z,62.18
2022-08-09T02:28:57.319Z,62.52
2022-08-09T02:31:34.181Z,61.94
2022-08-09T02:34:38.638Z,62.88
2022-08-09T02:37:09.295Z,60.58
2022-08-09T02:39:45.129Z,59.51
2022-08-09T02:42:20.154Z,60.51
2022-08-09T02:44:57.079Z,60.81
2022-08-09T02:47:24.900Z,61.41
2022-08-09T02:50:06.347Z,62.16
2022-08-09T02:52:55.594Z,61.74
2022-08-09T02:55:46.147Z,61.04
2022-08-09T02:58:35.845Z,62.03
2022-08-09T03:01:04.327Z,63.20
2022-08-09T03:04:13.104Z,62.78
2022-08-09T03:06:22.753Z,63.47
2022-08-09T03:08:52.416Z,61.14
2022-08-09T03:11:29.825Z,59.06
2022-08-09T03:14:10.664Z,57.12
2022-08-09T03:16:41.836Z,57.29
2022-08-09T03:19:58.201Z,57.69
2022-08-09T03:22:05.126Z,58.73
2022-08-09T03:24:51.870Z,60.01
2022-08-09T03:27:22.331Z,59.99
2022-08-09T03:29:57.792Z,60.43
2022-08-09T03:32:31.287Z,60.30
2022-08-09T03:34:59.750Z,61.74
2022-08-09T03:37:54.364Z,62.06
2022-08-09T03:40:17.996Z,62.52
2022-08-09T03:42:46.632Z,62.95
2022-08-09T03:45:14.052Z,61.29
2022-08-09T03:47:46.451Z,60.23
2022-08-09T03:50:28.013Z,59.49
2022-08-09T03:53:03.204Z,58.41
2022-08-09T03:55:30.260Z,56.51
2022-08-09T03:58:09.960Z,55.58
2022-08-09T04:00:45.034Z,54.48
2022-08-09T04:03:19.713Z,53.55
2022-08-09T04:05:58.843Z,52.39
2022-08-09T04:08:28.895Z,53.02
2022-08-09T04:10:56.378Z,52.99
2022-08-09T04:14:37.627Z,52.68
2022-08-09T04:16:19.267Z,53.59
2022-08-09T04:18:47.866Z,55.15
2022-08-09T04:21:17.555Z,55.07
2022-08-09T04:23:54.176Z,56.01
2022-08-09T04:26:24.137Z,55.90
2022-08-09T04:28:53.118Z,55.59
2022-08-09T04:31:21.587Z,55.52
2022-08-09T04:33:56.546Z,55.13
2022-08-09T04:36:26.347Z,54.96
2022-08-09T04:38:54.121Z,54.43
2022-08-09T04:41:23.732Z,54.21
2022-08-09T04:44:05.145Z,55.03
2022-08-09T04:46:38.217Z,55.72
2022-08-09T04:49:22.390Z,55.69
2022-08-09T04:51:57.259Z,54.88
2022-08-09T04:54:23.878Z,56.03
2022-08-09T04:56:50.536Z,57.37
2022-08-09T04:59:17.254Z,57.49
2022-08-09T05:01:47.708Z,57.17
2022-08-09T05:04:14.856Z,56.59
2022-08-09T05:06:41.474Z,56.78
2022-08-09T05:09:10.920Z,56.91
2022-08-09T05:11:39.622Z,57.74
2022-08-09T05:14:10.316Z,58.25
2022-08-09T05:16:43.432Z,58.36
2022-08-09T05:19:25.911Z,58.48
2022-08-09T05:21:55.706Z,58.25
2022-08-09T05:24:24.678Z,59.73
2022-08-09T05:26:53.029Z,59.15
2022-08-09T05:29:22.092Z,59.26
2022-08-09T05:31:59.090Z,56.98
2022-08-09T05:34:31.756Z,56.77
2022-08-09T05:37:06.034Z,56.85
2022-08-09T05:39:43.898Z,56.92
2022-08-09T05:42:17.758Z,55.89
2022-08-09T05:44:50.678Z,54.12
2022-08-09T05:47:19.166Z,54.04
2022-08-09T05:50:31.136Z,53.56
2022-08-09T05:52:32.794Z,52.77
2022-08-09T05:55:03.239Z,53.05
2022-08-09T05:57:55.653Z,52.25
2022-08-09T06:00:30.374Z,52.69
2022-08-09T06:03:02.833Z,52.39
2022-08-09T06:05:57.099Z,51.89
2022-08-09T06:08:24.236Z,51.95
2022-08-09T06:10:56.140Z,51.54
2022-08-09T06:13:23.912Z,51.88
2022-08-09T06:15:52.334Z,51.66
2022-08-09T06:18:24.054Z,51.11
2022-08-09T06:20:57.919Z,50.80
2022-08-09T06:23:57.386Z,50.59
2022-08-09T06:26:20.786Z,50.84
2022-08-09T06:28:59.661Z,50.91
2022-08-09T06:31:31.539Z,50.68
2022-08-09T06:34:07.519Z,50.29
2022-08-09T06:36:34.747Z,51.48
2022-08-09T06:39:02.668Z,51.43
2022-08-09T06:42:06.375Z,52.12
2022-08-09T06:44:22.804Z,52.00
2022-08-09T06:46:55.395Z,52.82
2022-08-09T06:49:29.027Z,52.10
2022-08-09T06:52:09.244Z,52.86
2022-08-09T06:54:35.906Z,52.90
2022-08-09T06:57:05.759Z,51.97
2022-08-09T07:00:49.736Z,52.05
2022-08-09T07:02:21.900Z,50.39
2022-08-09T07:04:55.924Z,50.86
2022-08-09T07:07:58.675Z,51.38
2022-08-09T07:10:22.429Z,50.74
2022-08-09T07:12:57.746Z,50.00
2022-08-09T07:16:38.485Z,50.28
2022-08-09T07:18:14.275Z,51.43
2022-08-09T07:20:43.766Z,51.58
2022-08-09T07:23:18.584Z,50.76
2022-08-09T07:25:47.791Z,52.15
2022-08-09T07:28:26.257Z,51.36
2022-08-09T07:30:55.644Z,50.17
2022-08-09T07:33:22.475Z,50.48
2022-08-09T07:35:53.670Z,51.00
2022-08-09T07:38:21.541Z,49.25
2022-08-09T07:41:10.051Z,49.40
2022-08-09T07:43:41.027Z,46.90
2022-08-09T07:46:08.465Z,46.04
2022-08-09T07:48:39.141Z,45.88
2022-08-09T07:52:03.381Z,48.17
2022-08-09T07:54:05.853Z,49.11
2022-08-09T07:56:38.824Z,49.54
2022-08-09T07:59:25.708Z,50.04
2022-08-09T08:02:02.588Z,47.95
2022-08-09T08:04:31.507Z,48.09
2022-08-09T08:07:00.026Z,49.38
2022-08-09T08:09:38.509Z,47.92
2022-08-09T08:12:27.277Z,48.32
2022-08-09T08:14:55.671Z,48.12
2022-08-09T08:17:35.172Z,47.88
2022-08-09T08:20:13.258Z,45.94
2022-08-09T08:22:40.859Z,46.35
2022-08-09T08:25:13.316Z,45.94
2022-08-09T08:27:43.041Z,45.91
2022-08-09T08:30:11.419Z,46.61
2022-08-09T08:32:41.670Z,46.34
2022-08-09T08:35:19.837Z,48.43
2022-08-09T08:37:59.608Z,48.27
2022-08-09T08:40:32.945Z,48.71
2022-08-09T08:43:02.787Z,48.03
2022-08-09T08:45:51.337Z,48.40
2022-08-09T08:48:21.118Z,47.46
2022-08-09T08:50:49.155Z,47.02
2022-08-09T08:53:21.769Z,46.46
2022-08-09T08:55:48.905Z,46.68
2022-08-09T08:58:27.123Z,47.16
2022-08-09T09:01:01.979Z,47.08
2022-08-09T09:03:37.592Z,46.92
2022-08-09T09:06:07.245Z,46.87
2022-08-09T09:08:42.197Z,45.88
2022-08-09T09:11:17.203Z,46.87
2022-08-09T09:13:56.282Z,46.09
2022-08-09T09:16:30.931Z,44.52
2022-08-09T09:19:37.508Z,45.23
2022-08-09T09:22:00.682Z,45.54
2022-08-09T09:24:31.463Z,46.15
2022-08-09T09:27:00.797Z,45.59
2022-08-09T09:30:09.299Z,45.65
2022-08-09T09:32:32.509Z,44.68
2022-08-09T09:35:15.799Z,45.48
2022-08-09T09:37:45.867Z,45.68
2022-08-09T09:40:13.033Z,42.44
2022-08-09T09:42:55.562Z,42.13
2022-08-09T09:45:26.795Z,41.32
2022-08-09T09:47:58.713Z,43.53
2022-08-09T09:50:50.977Z,43.61
2022-08-09T09:53:43.612Z,43.26
2022-08-09T09:56:19.840Z,44.17
2022-08-09T09:58:57.353Z,42.20
2022-08-09T10:01:37.067Z,42.85
2022-08-09T10:04:30.908Z,42.88
2022-08-09T10:07:03.229Z,43.43
2022-08-09T10:09:48.964Z,41.39
2022-08-09T10:12:32.693Z,42.81
2022-08-09T10:15:51.120Z,41.99
2022-08-09T10:18:12.498Z,42.46
2022-08-09T10:20:44.900Z,42.97
2022-08-09T10:23:22.806Z,42.79
2022-08-09T10:26:06.517Z,42.71
2022-08-09T10:28:39.114Z,41.84
2022-08-09T10:32:27.847Z,41.18
2022-08-09T10:34:10.656Z,41.61
2022-08-09T10:36:43.367Z,40.49
2022-08-09T10:39:15.748Z,41.56
2022-08-09T10:41:45.471Z,39.27
2022-08-09T10:44:18.360Z,37.58
2022-08-09T10:46:55.755Z,36.72
2022-08-09T10:49:58.613Z,36.05
2022-08-09T10:52:57.895Z,37.66
2022-08-09T10:55:55.743Z,38.90
2022-08-09T10:58:34.704Z,38.77
2022-08-09T11:03:05.646Z,39.91
2022-08-09T11:04:30.516Z,39.98
2022-08-09T11:07:00.023Z,39.60
2022-08-09T11:09:47.753Z,39.47
2022-08-09T11:12:20.611Z,36.58
2022-08-09T11:15:18.610Z,35.68
2022-08-09T11:17:48.152Z,38.62
2022-08-09T11:20:39.651Z,39.19
2022-08-09T11:23:07.276Z,37.67
2022-08-09T11:25:47.211Z,39.14
2022-08-09T11:28:33.851Z,39.67
2022-08-09T11:31:04.022Z,37.99
2022-08-09T11:33:50.384Z,38.34
2022-08-09T11:36:35.395Z,38.32
2022-08-09T11:39:04.224Z,38.60
2022-08-09T11:41:37.557Z,38.38
2022-08-09T11:44:06.000Z,35.90
2022-08-09T11:46:52.977Z,38.83
2022-08-09T11:50:52.352Z,37.10
2022-08-09T11:54:01.681Z,37.30
2022-08-09T11:56:02.510Z,37.19
2022-08-09T11:58:33.626Z,35.98
2022-08-09T12:01:03.387Z,33.21
2022-08-09T12:03:55.807Z,36.98
2022-08-09T12:06:26.846Z,37.02
2022-08-09T12:09:02.293Z,37.20
2022-08-09T12:11:30.786Z,36.03
2022-08-09T12:14:28.563Z,36.44
2022-08-09T12:16:58.333Z,33.29
2022-08-09T12:19:30.723Z,32.54
2022-08-09T12:22:01.982Z,34.28
2022-08-09T12:24:30.180Z,34.92
2022-08-09T12:29:13.080Z,34.27
2022-08-09T12:30:01.703Z,35.94
2022-08-09T12:32:44.721Z,36.78
2022-08-09T12:35:12.348Z,35.97
2022-08-09T12:37:50.176Z,35.61
2022-08-09T12:40:21.280Z,34.01
2022-08-09T12:42:50.876Z,31.71
2022-08-09T12:45:34.898Z,34.13
2022-08-09T12:48:19.955Z,33.60
2022-08-09T12:50:57.596Z,31.87
2022-08-09T12:53:41.262Z,31.34
2022-08-09T12:56:43.511Z,31.85
2022-08-09T12:59:11.876Z,29.45
2022-08-09T13:01:49.704Z,29.92
2022-08-09T13:04:36.198Z,32.16
2022-08-09T13:07:14.358Z,32.87
2022-08-09T13:09:45.434Z,33.30
2022-08-09T13:12:22.304Z,33.94
2022-08-09T13:14:53.645Z,34.33
2022-08-09T13:17:21.863Z,32.55
2022-08-09T13:20:20.261Z,34.25
2022-08-09T13:23:04.884Z,34.01
2022-08-09T13:25:42.616Z,33.96
2022-08-09T13:28:18.695Z,33.67
2022-08-09T13:32:13.559Z,34.12
2022-08-09T13:33:53.657Z,32.88
2022-08-09T13:36:24.826Z,32.47
2022-08-09T13:41:17.537Z,35.29
2022-08-09T13:42:01.312Z,34.78
2022-08-09T13:44:29.304Z,35.51
2022-08-09T13:47:30.806Z,33.99
2022-08-09T13:49:57.266Z,33.09
2022-08-09T13:52:26.022Z,31.21
2022-08-09T13:54:59.936Z,34.00
2022-08-09T13:57:37.154Z,34.29
2022-08-09T14:00:08.790Z,33.76
2022-08-09T14:02:36.321Z,34.02
2022-08-09T14:05:10.119Z,35.27
2022-08-09T14:07:41.065Z,35.34
2022-08-09T14:10:17.225Z,36.17
2022-08-09T14:12:55.675Z,35.58
2022-08-09T14:16:09.491Z,33.19
2022-08-09T14:18:19.693Z,33.96
2022-08-09T14:20:48.878Z,35.48
2022-08-09T14:23:20.323Z,33.80
2022-08-09T14:26:05.861Z,34.85
2022-08-09T14:28:33.324Z,34.38
2022-08-09T14:31:00.225Z,32.83
2022-08-09T14:33:27.587Z,35.45
2022-08-09T14:35:55.779Z,35.84
2022-08-09T14:38:22.588Z,35.62
2022-08-09T14:41:01.936Z,35.97
2022-08-09T14:43:47.433Z,36.62
2022-08-09T14:46:46.137Z,33.62
2022-08-09T14:49:06.835Z,36.64
2022-08-09T14:51:42.297Z,35.55
2022-08-09T14:54:09.662Z,36.70
2022-08-09T14:56:36.486Z,36.24
2022-08-09T14:59:23.549Z,35.30
2022-08-09T15:01:50.499Z,32.41
2022-08-09T15:04:17.092Z,35.84
2022-08-09T15:06:49.762Z,35.32
2022-08-09T15:10:03.538Z,34.35
2022-08-09T15:12:04.805Z,34.36
2022-08-09T15:14:34.589Z,33.42
2022-08-09T15:17:07.769Z,31.52
2022-08-09T15:19:59.035Z,33.38
2022-08-09T15:22:26.086Z,33.10
2022-08-09T15:24:53.532Z,31.16
2022-08-09T15:27:20.976Z,31.94
2022-08-09T15:30:57.627Z,32.76
2022-08-09T15:32:38.357Z,32.47
2022-08-09T15:35:40.132Z,32.62
2022-08-09T15:37:57.477Z,32.69
2022-08-09T15:40:38.223Z,33.22
2022-08-09T15:43:13.737Z,31.30
2022-08-09T15:46:07.774Z,31.20
2022-08-09T15:48:30.833Z,32.81
2022-08-09T15:51:29.988Z,33.04
2022-08-09T15:54:06.884Z,33.85
2022-08-09T15:56:36.374Z,34.76
2022-08-09T15:59:03.102Z,35.03
2022-08-09T16:01:35.492Z,35.45
2022-08-09T16:04:02.630Z,36.03
2022-08-09T16:06:35.547Z,35.72
2022-08-09T16:09:05.879Z,36.66
2022-08-09T16:11:33.162Z,36.86
2022-08-09T16:14:05.536Z,37.13
2022-08-09T16:16:36.780Z,37.54
2022-08-09T16:19:05.938Z,37.84
2022-08-09T16:21:34.945Z,37.50
2022-08-09T16:24:04.896Z,38.06
2022-08-09T16:26:34.690Z,38.49
2022-08-09T16:29:12.526Z,38.73
2022-08-09T16:32:19.170Z,39.05
2022-08-09T16:34:29.825Z,39.26
2022-08-09T16:37:16.471Z,38.79
2022-08-09T16:40:02.561Z,38.12
2022-08-09T16:42:29.686Z,38.04
2022-08-09T16:44:56.333Z,38.26
2022-08-09T16:48:50.270Z,38.82
2022-08-09T16:50:29.325Z,38.95
2022-08-09T16:52:56.816Z,39.07
2022-08-09T16:55:23.839Z,39.25
2022-08-09T16:58:10.191Z,39.14
2022-08-09T17:03:21.562Z,39.03
2022-08-09T17:06:06.778Z,38.46
2022-08-09T17:08:46.674Z,38.20
2022-08-09T17:11:40.781Z,38.77
2022-08-09T17:14:25.661Z,38.96
2022-08-09T17:16:59.679Z,39.17
2022-08-09T17:19:47.236Z,39.13
2022-08-09T17:22:24.659Z,38.82
2022-08-09T17:25:03.388Z,38.60
2022-08-09T17:27:38.198Z,38.65
2022-08-09T17:30:14.195Z,38.33
2022-08-09T17:32:45.263Z,38.61
2022-08-09T17:35:13.669Z,38.50
2022-08-09T17:38:12.083Z,37.99
2022-08-09T17:40:29.725Z,39.02
2022-08-09T17:42:59.756Z,38.61
2022-08-09T17:46:03.553Z,37.35
2022-08-09T17:48:29.280Z,38.87
2022-08-09T17:51:08.910Z,37.16
2022-08-09T17:53:52.114Z,38.65
2022-08-09T17:56:35.574Z,38.69
2022-08-09T17:59:11.457Z,38.73
2022-08-09T18:02:06.823Z,37.86
2022-08-09T18:04:26.710Z,39.14
2022-08-09T18:06:54.368Z,39.04
2022-08-09T18:09:22.999Z,39.60
2022-08-09T18:12:10.125Z,38.46
2022-08-09T18:14:49.879Z,38.40
2022-08-09T18:17:27.325Z,37.85
2022-08-09T18:20:54.860Z,38.51
2022-08-09T18:22:54.153Z,38.18
2022-08-09T18:25:21.062Z,37.30
2022-08-09T18:28:21.575Z,38.57
2022-08-09T18:30:54.514Z,38.99
2022-08-09T18:33:22.946Z,39.22
2022-08-09T18:36:00.209Z,38.58
2022-08-09T18:38:27.462Z,39.37
2022-08-09T18:40:55.464Z,38.68
2022-08-09T18:43:23.252Z,38.67
2022-08-09T18:46:50.786Z,39.13
2022-08-09T18:48:37.350Z,39.85
2022-08-09T18:51:04.202Z,39.27
2022-08-09T18:53:41.462Z,40.30
2022-08-09T18:56:27.087Z,40.20
2022-08-09T18:58:56.562Z,40.15
2022-08-09T19:01:24.105Z,39.99
2022-08-09T19:04:01.394Z,38.43
2022-08-09T19:06:33.873Z,39.98
2022-08-09T19:09:02.778Z,39.85
2022-08-09T19:11:37.532Z,40.47
2022-08-09T19:14:06.112Z,39.72
2022-08-09T19:16:36.053Z,40.12
2022-08-09T19:19:21.530Z,40.31
2022-08-09T19:22:06.204Z,39.51
2022-08-09T19:24:38.322Z,40.48
2022-08-09T19:27:16.370Z,40.56
2022-08-09T19:30:24.591Z,39.75
2022-08-09T19:32:37.159Z,40.25
2022-08-09T19:35:07.780Z,39.71
2022-08-09T19:37:54.161Z,40.51
2022-08-09T19:40:21.254Z,39.81
2022-08-09T19:42:50.985Z,39.52
2022-08-09T19:45:21.516Z,39.78
2022-08-09T19:47:50.251Z,39.83
2022-08-09T19:50:48.494Z,41.02
2022-08-09T19:53:04.451Z,40.31
2022-08-09T19:55:53.028Z,40.22
2022-08-09T19:58:29.529Z,40.87
2022-08-09T20:00:57.281Z,40.25
2022-08-09T20:04:10.450Z,40.30
2022-08-09T20:06:23.440Z,41.04
2022-08-09T20:08:55.494Z,40.96
2022-08-09T20:11:26.124Z,41.10
2022-08-09T20:13:54.355Z,40.36
2022-08-09T20:16:32.858Z,40.49
2022-08-09T20:19:49.361Z,40.50
2022-08-09T20:21:56.319Z,40.51
2022-08-09T20:24:29.797Z,41.51
2022-08-09T20:27:02.435Z,40.91
2022-08-09T20:29:37.123Z,41.38
2022-08-09T20:32:28.611Z,40.71
2022-08-09T20:34:53.874Z,42.05
2022-08-09T20:37:21.615Z,41.71
2022-08-09T20:40:16.587Z,41.70
2022-08-09T20:42:38.094Z,41.41
2022-08-09T20:45:59.419Z,41.20
2022-08-09T20:47:52.645Z,41.31
2022-08-09T20:50:47.104Z,41.28
2022-08-09T20:53:34.939Z,41.83
2022-08-09T20:56:00.758Z,41.39
2022-08-09T20:58:32.226Z,41.41
2022-08-09T21:01:02.208Z,41.68
2022-08-09T21:04:35.633Z,42.03
2022-08-09T21:06:35.829Z,42.15
2022-08-09T21:09:03.265Z,41.64
2022-08-09T21:14:17.360Z,41.76
2022-08-09T21:16:45.825Z,41.88
2022-08-09T21:20:19.098Z,42.33
2022-08-09T21:22:00.170Z,42.61
2022-08-09T21:24:33.798Z,42.75
2022-08-09T21:27:51.259Z,43.04
2022-08-09T21:29:49.624Z,43.32
2022-08-09T21:32:18.848Z,43.49
2022-08-09T21:34:49.059Z,43.72
2022-08-09T21:37:18.090Z,44.05
2022-08-09T21:39:45.339Z,44.05
2022-08-09T21:42:17.204Z,44.37
2022-08-09T21:44:44.646Z,44.34
2022-08-09T21:47:17.520Z,44.37
2022-08-09T21:49:46.377Z,44.12
2022-08-09T21:52:20.335Z,44.28
2022-08-09T21:54:59.352Z,44.35
2022-08-09T21:57:38.921Z,44.15
2022-08-09T22:00:25.205Z,44.32
2022-08-09T22:02:58.338Z,44.61
2022-08-09T22:05:36.163Z,44.07
2022-08-09T22:08:13.418Z,44.43
2022-08-09T22:11:49.646Z,44.56
2022-08-09T22:13:34.108Z,44.63
2022-08-09T22:16:03.736Z,44.81
2022-08-09T22:18:32.979Z,45.09
2022-08-09T22:21:00.896Z,45.19
2022-08-09T22:23:35.354Z,45.33
2022-08-09T22:26:23.537Z,45.63
2022-08-09T22:29:06.912Z,45.82
2022-08-09T22:31:50.506Z,45.48
2022-08-09T22:34:27.785Z,45.44
2022-08-09T22:36:56.696Z,45.78
2022-08-09T22:39:56.306Z,46.02
2022-08-09T22:42:20.630Z,45.59
2022-08-09T22:44:48.252Z,45.86
2022-08-09T22:48:15.223Z,45.87
2022-08-09T22:50:03.271Z,46.50
2022-08-09T22:52:29.880Z,46.09
2022-08-09T22:54:58.820Z,46.32
2022-08-09T22:57:35.432Z,46.14
2022-08-09T23:00:02.713Z,46.16
2022-08-09T23:02:29.346Z,46.22
2022-08-09T23:04:56.904Z,45.96
2022-08-09T23:08:22.379Z,45.89
2022-08-09T23:10:32.640Z,46.01
2022-08-09T23:12:59.771Z,46.44
2022-08-09T23:15:28.502Z,46.53
2022-08-09T23:17:55.825Z,46.75
2022-08-09T23:20:23.497Z,46.45
2022-08-09T23:22:50.065Z,46.54
2022-08-09T23:25:16.677Z,46.59
2022-08-09T23:27:57.325Z,46.30
2022-08-09T23:30:29.958Z,46.32
2022-08-09T23:32:56.674Z,46.53
2022-08-09T23:35:23.474Z,46.60
2022-08-09T23:37:50.124Z,46.92
2022-08-09T23:40:17.178Z,47.19
2022-08-09T23:42:43.859Z,47.24
2022-08-09T23:45:11.219Z,46.70
2022-08-09T23:47:57.816Z,46.97
2022-08-09T23:50:24.376Z,47.57
2022-08-09T23:52:50.944Z,47.63
2022-08-09T23:55:18.008Z,47.62
2022-08-09T23:57:52.619Z,47.24
